createdAt,value
2022-08-01T00:00:35.092Z,1010.42
2022-08-01T00:01:35.073Z,1010.38
2022-08-01T00:02:35.154Z,1010.38
2022-08-01T00:03:35.187Z,1010.38
2022-08-01T00:04:35.044Z,1010.37
2022-08-01T00:05:35.033Z,1010.40
2022-08-01T00:06:35.016Z,1010.39
2022-08-01T00:07:35.015Z,1010.39
2022-08-01T00:08:35.004Z,1010.38
2022-08-01T00:09:34.981Z,1010.38
2022-08-01T00:10:36.290Z,1010.37
2022-08-01T00:11:34.958Z,1010.40
2022-08-01T00:12:34.962Z,1010.36
2022-08-01T00:13:34.937Z,1010.37
2022-08-01T00:14:34.933Z,1010.41
2022-08-01T00:15:34.927Z,1010.40
2022-08-01T00:16:34.907Z,1010.40
2022-08-01T00:17:34.907Z,1010.42
2022-08-01T00:18:34.884Z,1010.44
2022-08-01T00:19:34.873Z,1010.43
2022-08-01T00:20:34.861Z,1010.43
2022-08-01T00:21:34.859Z,1010.38
2022-08-01T00:22:34.891Z,1010.41
2022-08-01T00:23:34.835Z,1010.41
2022-08-01T00:24:34.819Z,1010.43
2022-08-01T00:25:34.844Z,1010.41
2022-08-01T00:26:34.811Z,1010.42
2022-08-01T00:27:37.506Z,1010.39
2022-08-01T00:28:34.800Z,1010.40
2022-08-01T00:30:11.240Z,1010.38
2022-08-01T00:30:35.755Z,1010.37
2022-08-01T00:31:34.741Z,1010.37
2022-08-01T00:32:34.735Z,1010.36
2022-08-01T00:33:34.735Z,1010.38
2022-08-01T00:34:34.714Z,1010.38
2022-08-01T00:35:34.694Z,1010.37
2022-08-01T00:36:34.694Z,1010.38
2022-08-01T00:37:34.673Z,1010.39
2022-08-01T00:38:34.692Z,1010.34
2022-08-01T00:39:34.652Z,1010.38
2022-08-01T00:40:34.640Z,1010.41
2022-08-01T00:41:34.632Z,1010.36
2022-08-01T00:42:34.630Z,1010.36
2022-08-01T00:43:34.629Z,1010.38
2022-08-01T00:44:34.606Z,1010.38
2022-08-01T00:45:34.588Z,1010.37
2022-08-01T00:46:34.581Z,1010.35
2022-08-01T00:47:34.571Z,1010.40
2022-08-01T00:48:34.579Z,1010.38
2022-08-01T00:49:34.652Z,1010.43
2022-08-01T00:50:34.535Z,1010.37
2022-08-01T00:51:34.531Z,1010.41
2022-08-01T00:52:34.516Z,1010.37
2022-08-01T00:53:50.816Z,1010.32
2022-08-01T00:54:35.493Z,1010.31
2022-08-01T00:55:34.477Z,1010.33
2022-08-01T00:56:34.463Z,1010.36
2022-08-01T00:58:01.846Z,1010.39
2022-08-01T00:58:35.458Z,1010.40
2022-08-01T00:59:34.438Z,1010.37
2022-08-01T01:00:52.080Z,1010.41
2022-08-01T01:01:39.437Z,1010.39
2022-08-01T01:02:34.407Z,1010.43
2022-08-01T01:03:57.614Z,1010.44
2022-08-01T01:04:35.379Z,1010.43
2022-08-01T01:05:37.434Z,1010.42
2022-08-01T01:06:34.360Z,1010.51
2022-08-01T01:07:34.350Z,1010.52
2022-08-01T01:08:34.349Z,1010.44
2022-08-01T01:09:34.320Z,1010.47
2022-08-01T01:10:34.315Z,1010.48
2022-08-01T01:11:34.300Z,1010.46
2022-08-01T01:12:38.446Z,1010.47
2022-08-01T01:13:34.292Z,1010.48
2022-08-01T01:14:34.271Z,1010.51
2022-08-01T01:15:34.258Z,1010.50
2022-08-01T01:16:34.244Z,1010.51
2022-08-01T01:17:51.401Z,1010.50
2022-08-01T01:18:35.242Z,1010.52
2022-08-01T01:19:34.218Z,1010.52
2022-08-01T01:20:34.203Z,1010.52
2022-08-01T01:21:34.190Z,1010.54
2022-08-01T01:22:34.173Z,1010.51
2022-08-01T01:23:34.176Z,1010.52
2022-08-01T01:24:34.157Z,1010.51
2022-08-01T01:25:34.139Z,1010.50
2022-08-01T01:26:34.130Z,1010.52
2022-08-01T01:27:34.123Z,1010.54
2022-08-01T01:28:34.120Z,1010.52
2022-08-01T01:29:59.355Z,1010.54
2022-08-01T01:30:35.089Z,1010.53
2022-08-01T01:31:34.078Z,1010.52
2022-08-01T01:32:34.067Z,1010.52
2022-08-01T01:33:34.070Z,1010.52
2022-08-01T01:34:34.042Z,1010.48
2022-08-01T01:35:34.033Z,1010.49
2022-08-01T01:36:34.023Z,1010.54
2022-08-01T01:37:34.004Z,1010.51
2022-08-01T01:38:34.025Z,1010.47
2022-08-01T01:39:33.981Z,1010.53
2022-08-01T01:40:33.971Z,1010.57
2022-08-01T01:41:33.965Z,1010.54
2022-08-01T01:42:33.958Z,1010.60
2022-08-01T01:43:33.968Z,1010.56
2022-08-01T01:44:33.947Z,1010.57
2022-08-01T01:45:33.925Z,1010.59
2022-08-01T01:46:33.904Z,1010.58
2022-08-01T01:47:33.897Z,1010.58
2022-08-01T01:48:33.881Z,1010.55
2022-08-01T01:49:33.957Z,1010.61
2022-08-01T01:50:33.856Z,1010.59
2022-08-01T01:51:33.846Z,1010.62
2022-08-01T01:52:33.843Z,1010.57
2022-08-01T01:53:33.823Z,1010.57
2022-08-01T01:54:33.842Z,1010.59
2022-08-01T01:55:33.806Z,1010.61
2022-08-01T01:56:34.789Z,1010.58
2022-08-01T01:57:33.837Z,1010.63
2022-08-01T01:58:33.770Z,1010.61
2022-08-01T01:59:33.769Z,1010.58
2022-08-01T02:00:33.745Z,1010.54
2022-08-01T02:01:58.734Z,1010.61
2022-08-01T02:02:34.775Z,1010.58
2022-08-01T02:03:33.715Z,1010.60
2022-08-01T02:04:33.725Z,1010.63
2022-08-01T02:05:33.688Z,1010.61
2022-08-01T02:06:33.685Z,1010.56
2022-08-01T02:07:33.673Z,1010.58
2022-08-01T02:08:33.655Z,1010.54
2022-08-01T02:09:33.668Z,1010.52
2022-08-01T02:10:33.634Z,1010.54
2022-08-01T02:11:33.628Z,1010.51
2022-08-01T02:12:33.610Z,1010.50
2022-08-01T02:13:33.601Z,1010.51
2022-08-01T02:14:33.608Z,1010.54
2022-08-01T02:15:33.581Z,1010.55
2022-08-01T02:16:33.566Z,1010.48
2022-08-01T02:17:33.554Z,1010.52
2022-08-01T02:18:33.551Z,1010.47
2022-08-01T02:19:34.592Z,1010.44
2022-08-01T02:20:33.520Z,1010.47
2022-08-01T02:21:33.510Z,1010.46
2022-08-01T02:22:33.516Z,1010.48
2022-08-01T02:23:33.496Z,1010.48
2022-08-01T02:24:33.486Z,1010.46
2022-08-01T02:25:33.472Z,1010.43
2022-08-01T02:26:33.452Z,1010.40
2022-08-01T02:27:33.445Z,1010.37
2022-08-01T02:28:33.438Z,1010.42
2022-08-01T02:29:33.442Z,1010.41
2022-08-01T02:30:33.408Z,1010.40
2022-08-01T02:31:33.395Z,1010.41
2022-08-01T02:32:33.395Z,1010.42
2022-08-01T02:33:33.372Z,1010.45
2022-08-01T02:34:33.379Z,1010.46
2022-08-01T02:35:33.353Z,1010.44
2022-08-01T02:36:33.735Z,1010.43
2022-08-01T02:37:33.329Z,1010.39
2022-08-01T02:38:33.323Z,1010.44
2022-08-01T02:39:33.321Z,1010.41
2022-08-01T02:40:33.293Z,1010.34
2022-08-01T02:41:33.292Z,1010.39
2022-08-01T02:42:33.278Z,1010.40
2022-08-01T02:43:33.261Z,1010.45
2022-08-01T02:44:33.270Z,1010.42
2022-08-01T02:45:33.248Z,1010.38
2022-08-01T02:46:33.228Z,1010.38
2022-08-01T02:47:33.243Z,1010.39
2022-08-01T02:48:33.206Z,1010.34
2022-08-01T02:49:33.288Z,1010.35
2022-08-01T02:50:33.184Z,1010.37
2022-08-01T02:51:33.180Z,1010.34
2022-08-01T02:52:33.160Z,1010.33
2022-08-01T02:53:43.895Z,1010.37
2022-08-01T02:54:34.153Z,1010.38
2022-08-01T02:55:33.133Z,1010.38
2022-08-01T02:56:33.114Z,1010.41
2022-08-01T02:57:45.449Z,1010.43
2022-08-01T02:58:34.092Z,1010.42
2022-08-01T02:59:33.096Z,1010.42
2022-08-01T03:00:33.070Z,1010.41
2022-08-01T03:01:33.099Z,1010.40
2022-08-01T03:02:33.051Z,1010.38
2022-08-01T03:03:33.039Z,1010.39
2022-08-01T03:04:33.038Z,1010.42
2022-08-01T03:05:33.023Z,1010.36
2022-08-01T03:06:33.013Z,1010.43
2022-08-01T03:07:34.528Z,1010.39
2022-08-01T03:08:33.991Z,1010.39
2022-08-01T03:09:32.987Z,1010.41
2022-08-01T03:10:32.955Z,1010.40
2022-08-01T03:11:32.942Z,1010.41
2022-08-01T03:12:32.931Z,1010.44
2022-08-01T03:13:32.922Z,1010.45
2022-08-01T03:14:32.924Z,1010.46
2022-08-01T03:15:32.909Z,1010.49
2022-08-01T03:16:32.895Z,1010.48
2022-08-01T03:17:32.885Z,1010.47
2022-08-01T03:18:32.866Z,1010.46
2022-08-01T03:19:32.878Z,1010.46
2022-08-01T03:20:32.841Z,1010.46
2022-08-01T03:21:32.844Z,1010.47
2022-08-01T03:22:32.826Z,1010.47
2022-08-01T03:23:38.221Z,1010.47
2022-08-01T03:24:33.813Z,1010.43
2022-08-01T03:25:32.786Z,1010.48
2022-08-01T03:26:32.786Z,1010.45
2022-08-01T03:27:32.765Z,1010.48
2022-08-01T03:28:32.752Z,1010.50
2022-08-01T03:29:32.758Z,1010.48
2022-08-01T03:30:32.737Z,1010.48
2022-08-01T03:31:32.728Z,1010.43
2022-08-01T03:32:32.718Z,1010.51
2022-08-01T03:33:32.697Z,1010.47
2022-08-01T03:34:32.735Z,1010.47
2022-08-01T03:35:32.683Z,1010.43
2022-08-01T03:36:32.677Z,1010.47
2022-08-01T03:37:32.651Z,1010.48
2022-08-01T03:38:32.648Z,1010.49
2022-08-01T03:39:32.629Z,1010.48
2022-08-01T03:40:32.636Z,1010.48
2022-08-01T03:41:32.613Z,1010.50
2022-08-01T03:42:32.593Z,1010.48
2022-08-01T03:43:32.592Z,1010.48
2022-08-01T03:44:32.580Z,1010.51
2022-08-01T03:45:32.602Z,1010.48
2022-08-01T03:46:32.557Z,1010.50
2022-08-01T03:47:32.546Z,1010.49
2022-08-01T03:48:32.534Z,1010.49
2022-08-01T03:49:32.589Z,1010.54
2022-08-01T03:50:32.521Z,1010.51
2022-08-01T03:51:32.502Z,1010.50
2022-08-01T03:52:32.491Z,1010.51
2022-08-01T03:53:32.473Z,1010.50
2022-08-01T03:54:32.459Z,1010.48
2022-08-01T03:55:32.469Z,1010.49
2022-08-01T03:56:32.445Z,1010.46
2022-08-01T03:57:36.375Z,1010.50
2022-08-01T03:58:32.422Z,1010.47
2022-08-01T03:59:32.417Z,1010.47
2022-08-01T04:00:32.408Z,1010.47
2022-08-01T04:01:32.452Z,1010.47
2022-08-01T04:02:32.378Z,1010.49
2022-08-01T04:03:32.368Z,1010.48
2022-08-01T04:04:33.347Z,1010.49
2022-08-01T04:05:32.359Z,1010.49
2022-08-01T04:06:32.335Z,1010.54
2022-08-01T04:07:32.322Z,1010.54
2022-08-01T04:08:32.310Z,1010.51
2022-08-01T04:09:32.303Z,1010.52
2022-08-01T04:10:32.294Z,1010.52
2022-08-01T04:11:32.271Z,1010.50
2022-08-01T04:12:32.260Z,1010.51
2022-08-01T04:13:36.837Z,1010.53
2022-08-01T04:14:33.239Z,1010.52
2022-08-01T04:15:32.243Z,1010.47
2022-08-01T04:16:32.215Z,1010.48
2022-08-01T04:17:32.212Z,1010.48
2022-08-01T04:18:32.204Z,1010.50
2022-08-01T04:19:32.188Z,1010.49
2022-08-01T04:20:32.189Z,1010.54
2022-08-01T04:21:32.161Z,1010.54
2022-08-01T04:22:32.158Z,1010.53
2022-08-01T04:23:33.136Z,1010.53
2022-08-01T04:24:32.125Z,1010.53
2022-08-01T04:25:32.130Z,1010.55
2022-08-01T04:26:32.102Z,1010.51
2022-08-01T04:27:49.763Z,1010.58
2022-08-01T04:28:33.086Z,1010.57
2022-08-01T04:29:32.070Z,1010.58
2022-08-01T04:30:32.092Z,1010.59
2022-08-01T04:31:32.063Z,1010.66
2022-08-01T04:32:32.044Z,1010.64
2022-08-01T04:33:32.029Z,1010.67
2022-08-01T04:34:32.021Z,1010.64
2022-08-01T04:36:02.612Z,1010.69
2022-08-01T04:36:32.997Z,1010.70
2022-08-01T04:37:31.990Z,1010.69
2022-08-01T04:38:31.983Z,1010.73
2022-08-01T04:39:31.973Z,1010.72
2022-08-01T04:40:31.988Z,1010.74
2022-08-01T04:41:31.935Z,1010.71
2022-08-01T04:42:33.542Z,1010.74
2022-08-01T04:43:31.912Z,1010.76
2022-08-01T04:44:32.802Z,1010.74
2022-08-01T04:45:31.890Z,1010.73
2022-08-01T04:46:31.897Z,1010.76
2022-08-01T04:47:31.870Z,1010.74
2022-08-01T04:48:31.865Z,1010.78
2022-08-01T04:49:31.911Z,1010.80
2022-08-01T04:50:32.838Z,1010.80
2022-08-01T04:51:31.839Z,1010.80
2022-08-01T04:52:31.818Z,1010.83
2022-08-01T04:53:31.813Z,1010.84
2022-08-01T04:54:31.789Z,1010.89
2022-08-01T04:55:31.785Z,1010.91
2022-08-01T04:56:31.786Z,1010.90
2022-08-01T04:57:31.762Z,1010.91
2022-08-01T04:58:31.750Z,1010.93
2022-08-01T04:59:31.742Z,1010.93
2022-08-01T05:00:31.721Z,1010.94
2022-08-01T05:01:31.767Z,1010.94
2022-08-01T05:02:31.698Z,1010.95
2022-08-01T05:03:34.803Z,1010.95
2022-08-01T05:04:32.675Z,1010.95
2022-08-01T05:05:31.672Z,1010.95
2022-08-01T05:06:31.678Z,1010.93
2022-08-01T05:07:31.652Z,1010.96
2022-08-01T05:08:32.631Z,1010.94
2022-08-01T05:09:31.628Z,1010.95
2022-08-01T05:10:31.618Z,1010.99
2022-08-01T05:11:31.619Z,1010.96
2022-08-01T05:12:31.595Z,1011.00
2022-08-01T05:13:31.611Z,1010.99
2022-08-01T05:14:31.573Z,1011.01
2022-08-01T05:15:31.558Z,1010.99
2022-08-01T05:16:31.580Z,1010.99
2022-08-01T05:17:31.539Z,1010.97
2022-08-01T05:18:31.534Z,1010.97
2022-08-01T05:19:31.515Z,1010.94
2022-08-01T05:20:31.502Z,1010.99
2022-08-01T05:21:31.521Z,1010.97
2022-08-01T05:22:31.486Z,1010.98
2022-08-01T05:23:42.982Z,1010.99
2022-08-01T05:24:32.459Z,1010.98
2022-08-01T05:25:56.142Z,1010.96
2022-08-01T05:26:32.454Z,1010.97
2022-08-01T05:27:31.427Z,1010.98
2022-08-01T05:28:31.420Z,1011.03
2022-08-01T05:29:31.406Z,1011.02
2022-08-01T05:30:31.398Z,1011.01
2022-08-01T05:31:31.398Z,1011.02
2022-08-01T05:32:31.370Z,1011.05
2022-08-01T05:33:31.357Z,1011.05
2022-08-01T05:34:31.344Z,1011.10
2022-08-01T05:35:49.092Z,1011.07
2022-08-01T05:36:32.340Z,1011.04
2022-08-01T05:37:31.484Z,1011.06
2022-08-01T05:38:31.306Z,1011.07
2022-08-01T05:39:31.304Z,1011.10
2022-08-01T05:40:31.281Z,1011.08
2022-08-01T05:41:31.279Z,1011.12
2022-08-01T05:42:31.263Z,1011.08
2022-08-01T05:43:31.253Z,1011.08
2022-08-01T05:44:31.237Z,1011.04
2022-08-01T05:45:31.229Z,1011.07
2022-08-01T05:46:31.224Z,1011.08
2022-08-01T05:47:31.207Z,1011.09
2022-08-01T05:48:31.193Z,1011.08
2022-08-01T05:49:31.198Z,1011.10
2022-08-01T05:50:31.162Z,1011.12
2022-08-01T05:51:31.185Z,1011.14
2022-08-01T05:52:31.147Z,1011.15
2022-08-01T05:53:31.136Z,1011.13
2022-08-01T05:54:31.115Z,1011.16
2022-08-01T05:55:31.109Z,1011.15
2022-08-01T05:56:32.451Z,1011.10
2022-08-01T05:57:31.091Z,1011.12
2022-08-01T05:58:31.079Z,1011.20
2022-08-01T05:59:31.073Z,1011.18
2022-08-01T06:00:31.051Z,1011.16
2022-08-01T06:01:31.067Z,1011.17
2022-08-01T06:02:31.120Z,1011.22
2022-08-01T06:03:31.018Z,1011.19
2022-08-01T06:04:31.005Z,1011.26
2022-08-01T06:05:30.995Z,1011.21
2022-08-01T06:06:31.006Z,1011.19
2022-08-01T06:07:30.982Z,1011.18
2022-08-01T06:08:30.971Z,1011.18
2022-08-01T06:09:30.950Z,1011.18
2022-08-01T06:10:30.938Z,1011.10
2022-08-01T06:11:30.951Z,1011.10
2022-08-01T06:12:35.375Z,1011.12
2022-08-01T06:13:30.912Z,1011.09
2022-08-01T06:14:30.899Z,1011.12
2022-08-01T06:15:30.888Z,1011.16
2022-08-01T06:16:30.885Z,1011.14
2022-08-01T06:17:30.868Z,1011.15
2022-08-01T06:18:30.848Z,1011.15
2022-08-01T06:19:30.848Z,1011.10
2022-08-01T06:20:30.831Z,1011.10
2022-08-01T06:21:30.837Z,1011.13
2022-08-01T06:22:30.905Z,1011.10
2022-08-01T06:23:31.783Z,1011.13
2022-08-01T06:24:30.788Z,1011.14
2022-08-01T06:25:30.781Z,1011.19
2022-08-01T06:26:30.800Z,1011.15
2022-08-01T06:27:30.757Z,1011.20
2022-08-01T06:28:30.740Z,1011.17
2022-08-01T06:29:30.742Z,1011.23
2022-08-01T06:30:30.714Z,1011.18
2022-08-01T06:31:33.785Z,1011.18
2022-08-01T06:32:30.691Z,1011.16
2022-08-01T06:33:30.680Z,1011.14
2022-08-01T06:34:30.673Z,1011.14
2022-08-01T06:35:30.688Z,1011.12
2022-08-01T06:36:30.666Z,1011.14
2022-08-01T06:37:30.633Z,1011.13
2022-08-01T06:38:30.628Z,1011.16
2022-08-01T06:39:30.611Z,1011.17
2022-08-01T06:40:30.610Z,1011.19
2022-08-01T06:41:30.628Z,1011.17
2022-08-01T06:42:30.583Z,1011.18
2022-08-01T06:43:30.575Z,1011.17
2022-08-01T06:44:30.552Z,1011.18
2022-08-01T06:45:30.543Z,1011.19
2022-08-01T06:46:32.531Z,1011.21
2022-08-01T06:47:30.565Z,1011.19
2022-08-01T06:48:30.515Z,1011.20
2022-08-01T06:49:30.578Z,1011.21
2022-08-01T06:50:30.516Z,1011.20
2022-08-01T06:51:30.507Z,1011.17
2022-08-01T06:52:30.492Z,1011.18
2022-08-01T06:53:34.882Z,1011.17
2022-08-01T06:54:31.448Z,1011.16
2022-08-01T06:55:30.431Z,1011.17
2022-08-01T06:56:30.427Z,1011.20
2022-08-01T06:57:30.420Z,1011.18
2022-08-01T06:58:30.899Z,1011.18
2022-08-01T06:59:30.384Z,1011.16
2022-08-01T07:00:30.433Z,1011.19
2022-08-01T07:01:30.465Z,1011.23
2022-08-01T07:02:30.374Z,1011.23
2022-08-01T07:03:54.127Z,1011.21
2022-08-01T07:04:31.328Z,1011.20
2022-08-01T07:05:30.327Z,1011.21
2022-08-01T07:06:30.314Z,1011.17
2022-08-01T07:07:30.309Z,1011.18
2022-08-01T07:08:30.296Z,1011.23
2022-08-01T07:09:30.285Z,1011.23
2022-08-01T07:10:30.270Z,1011.25
2022-08-01T07:11:30.259Z,1011.25
2022-08-01T07:12:30.257Z,1011.25
2022-08-01T07:13:44.035Z,1011.24
2022-08-01T07:14:31.218Z,1011.25
2022-08-01T07:15:30.207Z,1011.24
2022-08-01T07:16:30.219Z,1011.26
2022-08-01T07:17:30.203Z,1011.23
2022-08-01T07:18:30.183Z,1011.25
2022-08-01T07:19:30.166Z,1011.24
2022-08-01T07:20:32.907Z,1011.22
2022-08-01T07:21:40.091Z,1011.23
2022-08-01T07:22:31.151Z,1011.19
2022-08-01T07:23:33.732Z,1011.21
2022-08-01T07:24:31.106Z,1011.20
2022-08-01T07:25:30.101Z,1011.27
2022-08-01T07:26:30.084Z,1011.25
2022-08-01T07:27:30.096Z,1011.27
2022-08-01T07:28:30.067Z,1011.29
2022-08-01T07:29:30.051Z,1011.27
2022-08-01T07:30:30.040Z,1011.27
2022-08-01T07:31:32.336Z,1011.27
2022-08-01T07:32:30.124Z,1011.26
2022-08-01T07:33:49.061Z,1011.23
2022-08-01T07:34:30.997Z,1011.22
2022-08-01T07:35:29.994Z,1011.26
2022-08-01T07:36:29.976Z,1011.27
2022-08-01T07:37:45.519Z,1011.28
2022-08-01T07:38:30.959Z,1011.30
2022-08-01T07:39:29.940Z,1011.30
2022-08-01T07:40:29.937Z,1011.30
2022-08-01T07:42:04.746Z,1011.29
2022-08-01T07:42:30.943Z,1011.35
2022-08-01T07:43:29.900Z,1011.33
2022-08-01T07:44:29.887Z,1011.35
2022-08-01T07:45:29.888Z,1011.33
2022-08-01T07:46:29.871Z,1011.37
2022-08-01T07:47:29.860Z,1011.38
2022-08-01T07:48:29.867Z,1011.38
2022-08-01T07:49:30.061Z,1011.40
2022-08-01T07:50:29.823Z,1011.44
2022-08-01T07:51:29.810Z,1011.40
2022-08-01T07:52:29.811Z,1011.45
2022-08-01T07:53:29.808Z,1011.46
2022-08-01T07:54:33.772Z,1011.46
2022-08-01T07:55:29.808Z,1011.47
2022-08-01T07:56:29.762Z,1011.46
2022-08-01T07:57:29.750Z,1011.47
2022-08-01T07:58:29.755Z,1011.48
2022-08-01T07:59:29.728Z,1011.48
2022-08-01T08:00:29.720Z,1011.42
2022-08-01T08:01:29.770Z,1011.45
2022-08-01T08:02:29.751Z,1011.42
2022-08-01T08:03:29.695Z,1011.44
2022-08-01T08:04:29.683Z,1011.40
2022-08-01T08:05:51.655Z,1011.38
2022-08-01T08:06:30.644Z,1011.40
2022-08-01T08:07:29.634Z,1011.42
2022-08-01T08:08:29.647Z,1011.40
2022-08-01T08:09:29.620Z,1011.41
2022-08-01T08:10:29.601Z,1011.40
2022-08-01T08:11:30.001Z,1011.33
2022-08-01T08:12:30.008Z,1011.34
2022-08-01T08:13:29.587Z,1011.33
2022-08-01T08:14:32.810Z,1011.35
2022-08-01T08:15:29.557Z,1011.37
2022-08-01T08:16:29.541Z,1011.37
2022-08-01T08:17:29.532Z,1011.41
2022-08-01T08:18:30.532Z,1011.39
2022-08-01T08:19:38.033Z,1011.40
2022-08-01T08:20:30.490Z,1011.41
2022-08-01T08:21:29.478Z,1011.45
2022-08-01T08:22:29.477Z,1011.43
2022-08-01T08:23:42.998Z,1011.42
2022-08-01T08:24:30.444Z,1011.42
2022-08-01T08:25:29.442Z,1011.43
2022-08-01T08:26:29.424Z,1011.40
2022-08-01T08:27:29.416Z,1011.41
2022-08-01T08:28:29.414Z,1011.45
2022-08-01T08:29:29.386Z,1011.40
2022-08-01T08:30:29.385Z,1011.41
2022-08-01T08:31:52.648Z,1011.43
2022-08-01T08:32:30.395Z,1011.45
2022-08-01T08:33:29.366Z,1011.43
2022-08-01T08:34:29.339Z,1011.45
2022-08-01T08:35:53.378Z,1011.43
2022-08-01T08:36:31.564Z,1011.47
2022-08-01T08:37:31.541Z,1011.47
2022-08-01T08:38:30.300Z,1011.49
2022-08-01T08:39:29.273Z,1011.51
2022-08-01T08:40:29.271Z,1011.50
2022-08-01T08:41:38.064Z,1011.49
2022-08-01T08:42:30.241Z,1011.53
2022-08-01T08:43:29.251Z,1011.48
2022-08-01T08:44:29.226Z,1011.51
2022-08-01T08:45:45.635Z,1011.52
2022-08-01T08:46:30.198Z,1011.50
2022-08-01T08:47:29.183Z,1011.47
2022-08-01T08:48:29.200Z,1011.53
2022-08-01T08:49:36.265Z,1011.51
2022-08-01T08:50:30.157Z,1011.52
2022-08-01T08:51:29.144Z,1011.54
2022-08-01T08:52:29.144Z,1011.51
2022-08-01T08:53:34.741Z,1011.55
2022-08-01T08:54:31.656Z,1011.61
2022-08-01T08:55:29.095Z,1011.60
2022-08-01T08:56:29.092Z,1011.58
2022-08-01T08:57:29.080Z,1011.57
2022-08-01T08:58:30.666Z,1011.62
2022-08-01T08:59:29.065Z,1011.62
2022-08-01T09:00:29.039Z,1011.66
2022-08-01T09:01:29.026Z,1011.65
2022-08-01T09:02:29.039Z,1011.59
2022-08-01T09:03:29.063Z,1011.64
2022-08-01T09:04:29.011Z,1011.64
2022-08-01T09:05:38.943Z,1011.62
2022-08-01T09:06:29.970Z,1011.59
2022-08-01T09:07:28.960Z,1011.62
2022-08-01T09:08:28.957Z,1011.58
2022-08-01T09:09:28.951Z,1011.63
2022-08-01T09:10:28.934Z,1011.64
2022-08-01T09:11:28.930Z,1011.65
2022-08-01T09:12:28.903Z,1011.68
2022-08-01T09:13:28.901Z,1011.68
2022-08-01T09:14:28.903Z,1011.71
2022-08-01T09:15:28.876Z,1011.70
2022-08-01T09:16:29.867Z,1011.69
2022-08-01T09:17:28.853Z,1011.73
2022-08-01T09:18:28.841Z,1011.75
2022-08-01T09:19:38.935Z,1011.71
2022-08-01T09:20:29.819Z,1011.73
2022-08-01T09:21:28.801Z,1011.75
2022-08-01T09:22:28.789Z,1011.72
2022-08-01T09:23:28.844Z,1011.74
2022-08-01T09:24:30.691Z,1011.73
2022-08-01T09:25:29.884Z,1011.72
2022-08-01T09:26:29.749Z,1011.71
2022-08-01T09:27:28.733Z,1011.71
2022-08-01T09:28:28.729Z,1011.70
2022-08-01T09:29:28.995Z,1011.75
2022-08-01T09:30:29.698Z,1011.75
2022-08-01T09:31:37.953Z,1011.75
2022-08-01T09:32:34.715Z,1011.71
2022-08-01T09:33:33.623Z,1011.71
2022-08-01T09:34:29.663Z,1011.70
2022-08-01T09:35:30.854Z,1011.75
2022-08-01T09:36:28.639Z,1011.76
2022-08-01T09:37:28.619Z,1011.77
2022-08-01T09:38:30.179Z,1011.75
2022-08-01T09:39:28.628Z,1011.78
2022-08-01T09:40:28.597Z,1011.78
2022-08-01T09:41:37.926Z,1011.79
2022-08-01T09:42:29.683Z,1011.79
2022-08-01T09:43:28.557Z,1011.82
2022-08-01T09:44:34.845Z,1011.84
2022-08-01T09:45:29.527Z,1011.83
2022-08-01T09:46:29.518Z,1011.85
2022-08-01T09:47:28.506Z,1011.95
2022-08-01T09:48:29.508Z,1011.84
2022-08-01T09:49:28.652Z,1011.87
2022-08-01T09:50:29.472Z,1011.89
2022-08-01T09:51:58.971Z,1011.86
2022-08-01T09:52:29.588Z,1011.81
2022-08-01T09:53:30.273Z,1011.74
2022-08-01T09:54:28.455Z,1011.89
2022-08-01T09:55:28.433Z,1011.82
2022-08-01T09:56:28.406Z,1011.92
2022-08-01T09:57:28.401Z,1011.81
2022-08-01T09:58:28.385Z,1011.86
2022-08-01T09:59:41.001Z,1011.76
2022-08-01T10:00:44.899Z,1011.80
2022-08-01T10:01:36.911Z,1011.78
2022-08-01T10:02:29.619Z,1011.80
2022-08-01T10:03:28.421Z,1011.99
2022-08-01T10:04:28.341Z,1011.79
2022-08-01T10:05:28.308Z,1011.80
2022-08-01T10:06:28.306Z,1011.84
2022-08-01T10:07:44.055Z,1011.99
2022-08-01T10:08:29.288Z,1011.79
2022-08-01T10:09:28.283Z,1011.80
2022-08-01T10:10:31.662Z,1011.76
2022-08-01T10:11:36.399Z,1011.79
2022-08-01T10:12:29.231Z,1011.72
2022-08-01T10:13:36.606Z,1011.75
2022-08-01T10:14:29.235Z,1011.73
2022-08-01T10:15:36.788Z,1011.71
2022-08-01T10:16:29.193Z,1011.73
2022-08-01T10:17:41.970Z,1011.70
2022-08-01T10:18:29.167Z,1011.72
2022-08-01T10:19:28.964Z,1011.87
2022-08-01T10:20:30.416Z,1011.68
2022-08-01T10:21:56.470Z,1011.66
2022-08-01T10:22:29.345Z,1011.68
2022-08-01T10:23:39.690Z,1011.62
2022-08-01T10:24:29.187Z,1011.66
2022-08-01T10:25:43.082Z,1011.78
2022-08-01T10:26:29.088Z,1011.59
2022-08-01T10:27:38.479Z,1011.61
2022-08-01T10:28:29.070Z,1011.62
2022-08-01T10:29:46.313Z,1011.51
2022-08-01T10:30:29.043Z,1011.58
2022-08-01T10:31:30.721Z,1011.62
2022-08-01T10:32:28.969Z,1011.63
2022-08-01T10:33:52.758Z,1011.60
2022-08-01T10:34:29.109Z,1011.60
2022-08-01T10:35:46.575Z,1011.68
2022-08-01T10:36:28.979Z,1011.66
2022-08-01T10:37:27.971Z,1011.59
2022-08-01T10:38:27.953Z,1011.57
2022-08-01T10:39:27.948Z,1011.61
2022-08-01T10:40:30.288Z,1011.63
2022-08-01T10:41:27.921Z,1011.57
2022-08-01T10:42:27.914Z,1011.60
2022-08-01T10:43:27.896Z,1011.64
2022-08-01T10:44:27.886Z,1011.55
2022-08-01T10:45:27.898Z,1011.67
2022-08-01T10:46:27.871Z,1011.55
2022-08-01T10:47:49.887Z,1011.56
2022-08-01T10:48:29.852Z,1011.58
2022-08-01T10:49:27.942Z,1011.55
2022-08-01T10:50:27.839Z,1011.61
2022-08-01T10:51:52.172Z,1011.57
2022-08-01T10:52:28.798Z,1011.66
2022-08-01T10:53:31.625Z,1011.63
2022-08-01T10:54:28.806Z,1011.63
2022-08-01T10:55:27.788Z,1011.54
2022-08-01T10:56:27.768Z,1011.53
2022-08-01T10:57:27.798Z,1011.54
2022-08-01T10:58:27.778Z,1011.53
2022-08-01T10:59:49.225Z,1011.53
2022-08-01T11:00:28.739Z,1011.48
2022-08-01T11:01:27.864Z,1011.52
2022-08-01T11:02:27.707Z,1011.54
2022-08-01T11:03:54.487Z,1011.52
2022-08-01T11:04:28.679Z,1011.57
2022-08-01T11:05:27.696Z,1011.57
2022-08-01T11:06:27.648Z,1011.63
2022-08-01T11:07:34.821Z,1011.62
2022-08-01T11:08:28.698Z,1011.60
2022-08-01T11:09:36.453Z,1011.57
2022-08-01T11:10:28.622Z,1011.62
2022-08-01T11:11:27.592Z,1011.53
2022-08-01T11:12:27.588Z,1011.58
2022-08-01T11:13:27.577Z,1011.61
2022-08-01T11:14:46.737Z,1011.60
2022-08-01T11:15:29.368Z,1011.60
2022-08-01T11:16:27.552Z,1011.56
2022-08-01T11:17:27.530Z,1011.57
2022-08-01T11:18:30.785Z,1011.55
2022-08-01T11:19:27.516Z,1011.50
2022-08-01T11:20:27.517Z,1011.50
2022-08-01T11:21:58.867Z,1011.52
2022-08-01T11:22:28.472Z,1011.58
2022-08-01T11:23:27.471Z,1011.52
2022-08-01T11:24:27.462Z,1011.50
2022-08-01T11:26:05.146Z,1011.52
2022-08-01T11:26:29.734Z,1011.49
2022-08-01T11:27:27.422Z,1011.41
2022-08-01T11:28:32.652Z,1011.34
2022-08-01T11:29:28.419Z,1011.43
2022-08-01T11:30:27.400Z,1011.35
2022-08-01T11:31:27.392Z,1011.41
2022-08-01T11:32:27.374Z,1011.40
2022-08-01T11:33:27.366Z,1011.41
2022-08-01T11:34:27.352Z,1011.45
2022-08-01T11:35:27.357Z,1011.36
2022-08-01T11:36:56.840Z,1011.41
2022-08-01T11:37:30.636Z,1011.42
2022-08-01T11:38:27.320Z,1011.38
2022-08-01T11:39:27.335Z,1011.41
2022-08-01T11:40:27.304Z,1011.43
2022-08-01T11:41:37.134Z,1011.42
2022-08-01T11:42:28.266Z,1011.43
2022-08-01T11:43:27.257Z,1011.41
2022-08-01T11:44:27.245Z,1011.40
2022-08-01T11:45:27.251Z,1011.36
2022-08-01T11:46:27.224Z,1011.36
2022-08-01T11:47:29.796Z,1011.32
2022-08-01T11:48:27.823Z,1011.31
2022-08-01T11:49:28.962Z,1011.33
2022-08-01T11:50:27.190Z,1011.28
2022-08-01T11:51:27.162Z,1011.32
2022-08-01T11:52:27.220Z,1011.33
2022-08-01T11:53:27.155Z,1011.32
2022-08-01T11:54:35.170Z,1011.32
2022-08-01T11:55:31.617Z,1011.31
2022-08-01T11:56:28.845Z,1011.31
2022-08-01T11:57:34.212Z,1011.30
2022-08-01T11:58:30.665Z,1011.28
2022-08-01T11:59:27.078Z,1011.33
2022-08-01T12:00:28.083Z,1011.28
2022-08-01T12:01:27.056Z,1011.29
2022-08-01T12:02:30.255Z,1011.29
2022-08-01T12:03:33.168Z,1011.32
2022-08-01T12:04:28.022Z,1011.32
2022-08-01T12:05:27.027Z,1011.35